Time;durP1;ratioP1;P1;durP2;ratioP2;P2;SDS_P1;SDS_P2;PMS_P1;PMS_P2;Temp;Humidity;BMP_temperature;BMP_pressure;BME280_temperature;BME280_humidity;BME280_pressure;Samples;Min_cycle;Max_cycle;Signal;HPM_P1;HPM_P2
2023/04/05 00:01:25;;;;;;;71.70;10.77;;;2.50;84.50;;;;;;5061441;28;20157;-86
2023/04/05 00:03:58;;;;;;;79.07;12.18;;;2.60;85.20;;;;;;5119719;22;20227;-81
2023/04/05 00:08:49;;;;;;;73.50;10.57;;;2.50;82.80;;;;;;5351674;22;20225;-81
2023/04/05 00:11:16;;;;;;;73.43;11.63;;;2.50;83.20;;;;;;5038625;28;20224;-81
2023/04/05 00:13:42;;;;;;;70.35;9.70;;;2.40;86.50;;;;;;5040018;28;20189;-82
2023/04/05 00:16:08;;;;;;;72.63;10.47;;;2.40;88.30;;;;;;5039564;28;20173;-81
2023/04/05 00:18:37;;;;;;;72.40;11.90;;;2.40;89.20;;;;;;5040525;28;20176;-81
2023/04/05 00:21:05;;;;;;;76.93;12.30;;;2.30;90.20;;;;;;5040472;28;20411;-81
2023/04/05 00:23:37;;;;;;;72.38;10.63;;;2.30;92.40;;;;;;5040236;28;20714;-81
2023/04/05 00:26:02;;;;;;;71.63;11.10;;;2.30;94.10;;;;;;5039773;28;20192;-81
2023/04/05 00:28:28;;;;;;;76.23;11.10;;;2.30;93.90;;;;;;5041355;28;20568;-81
2023/04/05 00:30:54;;;;;;;71.87;11.50;;;2.40;93.40;;;;;;5040759;28;20162;-81
2023/04/05 00:33:19;;;;;;;71.70;11.07;;;2.40;93.30;;;;;;5041323;28;20195;-81
2023/04/05 00:35:45;;;;;;;71.70;10.37;;;2.40;93.50;;;;;;5043972;28;20171;-81
2023/04/05 00:38:11;;;;;;;76.33;12.33;;;2.40;93.30;;;;;;5044421;28;20629;-81
2023/04/05 00:40:36;;;;;;;71.87;10.60;;;2.30;93.40;;;;;;5044166;28;20158;-81
2023/04/05 00:43:05;;;;;;;73.30;10.20;;;2.30;93.80;;;;;;5044017;28;20189;-81
2023/04/05 00:45:31;;;;;;;71.93;9.82;;;2.40;93.60;;;;;;5044737;28;20192;-81
2023/04/05 00:47:56;;;;;;;69.70;9.33;;;2.40;94.00;;;;;;5044710;28;20185;-81
2023/04/05 00:50:23;;;;;;;74.50;10.13;;;2.30;95.50;;;;;;5044194;28;20395;-81
2023/04/05 00:52:49;;;;;;;73.68;9.77;;;2.40;96.10;;;;;;5044243;28;20191;-81
2023/04/05 00:55:16;;;;;;;73.60;10.38;;;2.50;95.00;;;;;;5044636;28;20528;-81
2023/04/05 00:57:44;;;;;;;76.55;11.05;;;2.50;96.30;;;;;;5043483;28;20698;-81
2023/04/05 01:00:14;;;;;;;73.03;10.38;;;2.50;95.70;;;;;;5042842;28;20514;-81
2023/04/05 01:02:48;;;;;;;75.35;10.48;;;2.50;95.30;;;;;;5043399;28;20161;-81
2023/04/05 01:05:48;;;;;;;72.47;10.18;;;2.50;97.30;;;;;;5043732;28;20164;-81
2023/04/05 01:08:37;;;;;;;69.80;9.55;;;2.50;97.00;;;;;;5032222;28;20247;-81
2023/04/05 01:11:05;;;;;;;72.82;11.05;;;2.50;97.40;;;;;;5044100;28;20471;-81
2023/04/05 01:13:32;;;;;;;72.88;10.50;;;2.40;99.60;;;;;;5042163;28;20193;-81
2023/04/05 01:15:58;;;;;;;74.97;11.43;;;2.40;98.90;;;;;;5043804;28;20199;-81
2023/04/05 01:18:25;;;;;;;71.97;10.57;;;2.40;99.50;;;;;;5042151;28;20169;-81
2023/04/05 01:21:36;;;;;;;70.75;10.30;;;2.40;99.90;;;;;;5044047;28;20434;-81
2023/04/05 01:24:13;;;;;;;71.68;10.60;;;2.40;99.90;;;;;;5042883;28;20202;-81
2023/04/05 01:26:45;;;;;;;75.07;10.15;;;2.50;99.90;;;;;;5040747;28;20153;-81
2023/04/05 01:29:32;;;;;;;74.97;11.25;;;2.50;99.90;;;;;;5043355;28;20185;-81
2023/04/05 01:32:25;;;;;;;77.30;11.05;;;2.60;99.90;;;;;;5042456;28;20169;-81
2023/04/05 01:35:20;;;;;;;76.82;10.85;;;2.60;99.90;;;;;;5042565;28;20138;-81
2023/04/05 01:37:56;;;;;;;69.97;9.30;;;2.70;99.90;;;;;;5041436;28;20533;-81
2023/04/05 01:40:22;;;;;;;71.18;10.55;;;2.60;99.50;;;;;;5042476;28;20161;-81
2023/04/05 01:42:48;;;;;;;72.55;10.25;;;2.60;98.00;;;;;;5043455;28;20185;-81
2023/04/05 01:45:14;;;;;;;74.47;12.20;;;2.60;98.40;;;;;;5042389;28;20168;-81
2023/04/05 01:47:40;;;;;;;73.10;11.40;;;2.60;98.50;;;;;;5042284;28;20193;-81
2023/04/05 01:50:06;;;;;;;73.60;10.53;;;2.60;98.40;;;;;;5041201;28;20408;-81
2023/04/05 01:52:32;;;;;;;75.28;11.38;;;2.60;99.10;;;;;;5042694;28;20404;-81
2023/04/05 01:54:57;;;;;;;74.20;9.93;;;2.60;99.90;;;;;;5042520;28;20524;-81
2023/04/05 01:57:23;;;;;;;73.40;11.37;;;2.60;99.90;;;;;;5042956;28;20648;-81
2023/04/05 01:59:48;;;;;;;71.67;9.60;;;2.50;99.90;;;;;;5042464;28;20161;-81
2023/04/05 02:02:14;;;;;;;73.60;12.20;;;2.50;99.90;;;;;;5045068;28;20165;-81
2023/04/05 02:04:41;;;;;;;78.87;9.83;;;2.50;99.90;;;;;;5042282;28;20189;-81
2023/04/05 02:07:07;;;;;;;72.15;10.30;;;2.50;99.90;;;;;;5041887;28;20161;-81
2023/04/05 02:09:32;;;;;;;75.27;12.97;;;2.50;99.90;;;;;;5041717;28;20240;-81
2023/04/05 02:11:58;;;;;;;71.00;9.60;;;2.50;99.90;;;;;;5040786;28;20192;-81
2023/04/05 02:14:24;;;;;;;75.27;11.83;;;2.40;99.90;;;;;;5042082;28;20203;-81
2023/04/05 02:16:52;;;;;;;74.80;13.07;;;2.40;99.90;;;;;;5042513;28;20165;-81
2023/04/05 02:19:21;;;;;;;71.82;11.07;;;2.50;99.90;;;;;;5040432;28;20227;-81
2023/04/05 02:21:48;;;;;;;71.22;11.25;;;2.50;99.90;;;;;;5041095;28;20176;-81
2023/04/05 02:24:14;;;;;;;77.55;12.50;;;2.50;99.90;;;;;;5042254;28;20180;-81
2023/04/05 02:26:40;;;;;;;75.90;11.27;;;2.40;99.90;;;;;;5044729;28;20157;-82
2023/04/05 02:29:05;;;;;;;73.47;13.50;;;2.50;99.90;;;;;;5041427;28;20539;-81
2023/04/05 02:31:32;;;;;;;69.10;10.43;;;2.50;99.90;;;;;;5041757;28;20165;-81
2023/04/05 02:33:59;;;;;;;71.90;11.82;;;2.60;99.90;;;;;;5042021;28;20184;-81
2023/04/05 02:36:27;;;;;;;71.60;12.00;;;2.60;99.90;;;;;;5041329;28;20524;-81
2023/04/05 02:38:53;;;;;;;73.50;13.02;;;2.60;99.90;;;;;;5043796;28;20722;-81
2023/04/05 02:41:20;;;;;;;79.50;13.77;;;2.60;99.90;;;;;;5044692;28;20166;-81
2023/04/05 02:43:46;;;;;;;74.18;13.50;;;2.60;99.90;;;;;;5043144;28;20200;-81
2023/04/05 02:46:12;;;;;;;72.00;13.43;;;2.50;99.90;;;;;;5042804;28;20165;-81
2023/04/05 02:48:37;;;;;;;79.37;14.47;;;2.50;99.90;;;;;;5041180;28;20228;-81
2023/04/05 02:51:03;;;;;;;76.70;18.37;;;2.60;99.90;;;;;;5041780;28;20217;-81
2023/04/05 02:53:29;;;;;;;74.87;13.80;;;2.50;99.90;;;;;;5044834;28;20181;-81
2023/04/05 02:58:33;;;;;;;76.53;14.70;;;2.50;99.90;;;;;;5179844;22;20974;-81
2023/04/05 03:01:00;;;;;;;78.18;15.73;;;2.50;99.90;;;;;;5041279;28;20176;-81
2023/04/05 03:03:27;;;;;;;77.90;15.68;;;2.40;99.90;;;;;;5041516;28;20591;-81
2023/04/05 03:06:12;;;;;;;76.03;14.90;;;2.40;99.90;;;;;;5040736;28;20169;-81
2023/04/05 03:08:47;;;;;;;77.47;15.27;;;2.30;99.90;;;;;;5042812;28;20181;-81
2023/04/05 03:11:13;;;;;;;82.25;15.63;;;2.30;99.90;;;;;;5041687;28;20148;-81
2023/04/05 03:13:40;;;;;;;77.85;14.32;;;2.20;99.90;;;;;;5041765;28;20207;-81
2023/04/05 03:16:06;;;;;;;74.82;15.40;;;2.10;99.90;;;;;;5040407;28;20177;-81
2023/04/05 03:18:32;;;;;;;75.57;14.07;;;2.00;99.90;;;;;;5041882;28;20181;-81
2023/04/05 03:20:57;;;;;;;72.63;13.13;;;2.00;99.90;;;;;;5041990;28;20392;-81
2023/04/05 03:23:28;;;;;;;79.00;14.63;;;2.00;99.90;;;;;;5041500;28;20424;-81
2023/04/05 03:26:04;;;;;;;73.40;13.45;;;1.90;99.90;;;;;;5045285;28;20411;-81
2023/04/05 03:28:33;;;;;;;84.05;15.35;;;1.90;99.90;;;;;;5042072;28;20210;-81
2023/04/05 03:30:59;;;;;;;77.53;17.85;;;1.90;99.90;;;;;;5042701;28;20640;-81
2023/04/05 03:33:25;;;;;;;73.57;13.33;;;1.80;99.90;;;;;;5040811;28;20193;-81
2023/04/05 03:35:50;;;;;;;72.30;13.43;;;1.90;99.90;;;;;;5041244;28;20412;-81
2023/04/05 03:38:16;;;;;;;76.30;15.67;;;1.80;99.90;;;;;;5040821;28;20176;-81
2023/04/05 03:40:42;;;;;;;74.50;15.30;;;1.80;99.90;;;;;;5041870;28;20651;-81
2023/04/05 03:43:08;;;;;;;73.23;16.70;;;1.80;99.90;;;;;;5041886;28;20201;-81
2023/04/05 03:45:33;;;;;;;74.17;16.60;;;1.80;99.90;;;;;;5042823;28;20396;-81
2023/04/05 03:48:03;;;;;;;78.87;20.30;;;1.70;99.90;;;;;;5041022;28;20446;-81
2023/04/05 03:50:28;;;;;;;75.55;18.55;;;1.70;99.90;;;;;;5040848;28;20524;-81
2023/04/05 03:52:57;;;;;;;76.30;18.60;;;1.70;99.90;;;;;;5040362;28;20192;-81
2023/04/05 03:55:22;;;;;;;73.55;16.95;;;1.70;99.90;;;;;;5041708;28;20161;-81
2023/04/05 03:57:48;;;;;;;75.50;17.40;;;1.70;99.90;;;;;;5041596;28;20321;-81
2023/04/05 04:00:16;;;;;;;74.80;20.43;;;1.70;99.90;;;;;;5041414;28;20222;-81
2023/04/05 04:02:49;;;;;;;76.95;21.65;;;1.70;99.90;;;;;;5040825;28;20242;-81
2023/04/05 04:05:15;;;;;;;75.32;20.50;;;1.60;99.90;;;;;;5042184;28;20165;-81
2023/04/05 04:07:42;;;;;;;77.97;20.73;;;1.60;99.90;;;;;;5042361;28;20192;-81
2023/04/05 04:10:09;;;;;;;79.38;19.33;;;1.60;99.90;;;;;;5043569;28;20660;-81
2023/04/05 04:12:36;;;;;;;74.22;17.45;;;1.60;99.90;;;;;;5045304;28;20173;-81
2023/04/05 04:15:02;;;;;;;78.07;21.25;;;1.50;99.90;;;;;;5046285;28;20161;-81
2023/04/05 04:17:36;;;;;;;74.63;19.00;;;1.50;99.90;;;;;;5045970;28;20188;-81
2023/04/05 04:20:08;;;;;;;76.28;21.42;;;1.50;99.90;;;;;;5046162;28;20169;-81
2023/04/05 04:22:37;;;;;;;76.55;20.25;;;1.50;99.90;;;;;;5045013;28;20172;-81
2023/04/05 04:25:10;;;;;;;76.50;24.05;;;1.50;99.90;;;;;;5046560;28;20169;-81
2023/04/05 04:27:45;;;;;;;75.50;21.80;;;1.40;99.90;;;;;;5044987;28;20216;-81
2023/04/05 04:30:13;;;;;;;75.18;21.20;;;1.40;99.90;;;;;;5044006;28;20153;-81
2023/04/05 04:32:56;;;;;;;77.13;19.92;;;1.30;99.90;;;;;;5045722;28;20582;-81
2023/04/05 04:35:27;;;;;;;77.97;23.27;;;1.30;99.90;;;;;;5046210;28;20152;-81
2023/04/05 04:37:56;;;;;;;74.72;22.00;;;1.30;99.90;;;;;;5046640;28;20146;-80
2023/04/05 04:40:45;;;;;;;76.80;24.80;;;1.30;99.90;;;;;;5046190;28;20157;-81
2023/04/05 04:43:13;;;;;;;77.95;25.15;;;1.20;99.90;;;;;;5046349;28;20212;-81
2023/04/05 04:45:53;;;;;;;80.63;22.65;;;1.20;99.90;;;;;;5045641;28;20163;-81
2023/04/05 04:48:20;;;;;;;76.78;21.65;;;1.20;99.90;;;;;;5046912;28;20189;-81
2023/04/05 04:50:48;;;;;;;77.03;25.70;;;1.20;99.90;;;;;;5048839;28;20166;-81
2023/04/05 04:53:17;;;;;;;78.05;24.45;;;1.10;99.90;;;;;;5048481;28;20239;-81
2023/04/05 04:55:43;;;;;;;77.28;21.35;;;1.10;99.90;;;;;;5046524;28;20211;-81
2023/04/05 04:58:11;;;;;;;85.50;26.45;;;1.10;99.90;;;;;;5048226;28;20653;-80
2023/04/05 05:00:47;;;;;;;77.60;25.05;;;1.10;99.90;;;;;;5046552;28;20173;-81
2023/04/05 05:03:13;;;;;;;78.68;24.00;;;1.00;99.90;;;;;;5046709;28;20256;-81
2023/04/05 05:05:46;;;;;;;82.47;23.30;;;1.00;99.90;;;;;;5049033;28;20215;-80
2023/04/05 05:08:12;;;;;;;80.93;25.40;;;1.00;99.90;;;;;;5047092;28;20203;-81
2023/04/05 05:10:38;;;;;;;75.28;24.60;;;1.00;99.90;;;;;;5046646;28;20180;-80
2023/04/05 05:13:04;;;;;;;80.20;23.35;;;1.00;99.90;;;;;;5046737;28;20208;-81
2023/04/05 05:15:30;;;;;;;78.77;22.90;;;1.00;99.90;;;;;;5047618;28;20161;-80
2023/04/05 05:17:57;;;;;;;82.23;26.93;;;0.90;99.90;;;;;;5046017;28;20903;-81
2023/04/05 05:20:23;;;;;;;77.35;27.10;;;1.00;99.90;;;;;;5046410;28;20392;-80
2023/04/05 05:22:50;;;;;;;76.63;24.13;;;1.00;99.90;;;;;;5046911;28;20207;-80
2023/04/05 05:25:15;;;;;;;81.60;24.08;;;1.10;99.90;;;;;;5047473;28;20591;-80
2023/04/05 05:27:41;;;;;;;82.03;30.50;;;1.00;99.90;;;;;;5047012;28;20279;-81
2023/04/05 05:30:08;;;;;;;84.50;31.20;;;1.10;99.90;;;;;;5044956;28;20423;-81
2023/04/05 05:32:33;;;;;;;80.07;28.27;;;1.10;99.90;;;;;;5044773;28;20157;-80
2023/04/05 05:35:02;;;;;;;80.37;26.63;;;1.10;99.90;;;;;;5045115;28;20211;-80
2023/04/05 05:37:35;;;;;;;82.97;23.75;;;1.20;99.90;;;;;;5044391;28;20183;-80
2023/04/05 05:40:06;;;;;;;82.05;28.38;;;1.20;99.90;;;;;;5044299;28;20557;-80
2023/04/05 05:42:32;;;;;;;79.75;27.40;;;1.20;99.90;;;;;;5044756;28;20192;-80
2023/04/05 05:49:55;;;;;;;90.43;29.13;;;1.30;99.90;;;;;;5087613;22;20225;-82
2023/04/05 05:52:21;;;;;;;80.13;29.50;;;1.40;99.90;;;;;;5046027;28;20165;-82
2023/04/05 05:54:49;;;;;;;80.50;27.07;;;1.50;99.90;;;;;;5044980;28;20212;-82
2023/04/05 05:57:17;;;;;;;80.93;30.13;;;1.50;99.90;;;;;;5045747;28;20388;-82
2023/04/05 05:59:43;;;;;;;82.50;29.40;;;1.60;99.90;;;;;;5043863;28;20162;-80
2023/04/05 06:02:09;;;;;;;84.87;28.37;;;1.70;99.90;;;;;;5042777;28;20192;-80
2023/04/05 06:04:36;;;;;;;78.28;26.83;;;1.80;99.90;;;;;;5098276;22;20225;-85
2023/04/05 06:07:03;;;;;;;87.28;27.90;;;1.80;99.90;;;;;;5022806;28;20634;-85
2023/04/05 06:09:29;;;;;;;82.03;26.95;;;1.90;99.90;;;;;;5023349;28;20209;-85
2023/04/05 06:11:55;;;;;;;79.45;32.15;;;1.90;99.90;;;;;;5024199;28;20209;-85
2023/04/05 06:14:21;;;;;;;78.37;28.20;;;2.00;99.90;;;;;;5023450;28;20189;-85
2023/04/05 06:16:47;;;;;;;75.63;20.80;;;2.10;99.90;;;;;;5022492;28;20420;-85
2023/04/05 06:19:13;;;;;;;75.70;21.13;;;2.20;99.90;;;;;;5023614;28;20598;-85
2023/04/05 06:21:40;;;;;;;75.25;19.98;;;2.30;99.00;;;;;;5021979;28;20431;-86
2023/04/05 06:24:06;;;;;;;79.57;17.25;;;2.30;97.00;;;;;;5022508;28;20546;-85
2023/04/05 06:26:35;;;;;;;74.70;13.55;;;2.50;96.40;;;;;;5021658;28;20172;-85
2023/04/05 06:29:01;;;;;;;75.47;11.82;;;2.60;96.20;;;;;;5021485;28;20564;-85
2023/04/05 06:31:31;;;;;;;73.00;10.57;;;2.60;95.90;;;;;;5022638;28;20241;-86
2023/04/05 06:33:59;;;;;;;75.85;10.75;;;2.70;93.50;;;;;;5022858;28;20436;-86
2023/04/05 06:36:25;;;;;;;76.35;10.57;;;2.80;90.90;;;;;;5022469;28;20165;-86
2023/04/05 06:38:52;;;;;;;71.13;10.70;;;2.80;80.60;;;;;;5021794;28;20191;-85
2023/04/05 06:41:17;;;;;;;73.82;10.63;;;2.90;83.40;;;;;;5023102;28;20165;-86
2023/04/05 06:43:43;;;;;;;75.93;11.20;;;2.80;80.10;;;;;;5021573;28;20190;-86
2023/04/05 06:46:12;;;;;;;74.70;10.53;;;2.90;84.30;;;;;;5022547;28;20800;-86
2023/04/05 06:48:38;;;;;;;74.35;11.90;;;3.00;81.10;;;;;;5021996;28;20467;-86
2023/04/05 06:51:13;;;;;;;74.07;11.00;;;3.10;80.30;;;;;;5021513;28;20170;-85
2023/04/05 06:53:39;;;;;;;78.03;11.70;;;3.10;75.70;;;;;;5021257;28;20941;-85
2023/04/05 06:56:06;;;;;;;73.87;11.70;;;3.20;69.10;;;;;;5021124;28;20220;-86
2023/04/05 06:58:32;;;;;;;81.20;11.50;;;3.30;68.60;;;;;;5022679;28;20479;-86
2023/04/05 07:01:00;;;;;;;76.90;10.57;;;3.30;68.10;;;;;;5021154;28;20174;-85
2023/04/05 07:03:29;;;;;;;75.38;10.45;;;3.30;66.80;;;;;;5024126;28;20189;-85
2023/04/05 07:06:01;;;;;;;73.63;10.98;;;3.40;65.40;;;;;;5029798;28;20196;-85
2023/04/05 07:08:30;;;;;;;75.55;10.75;;;3.40;58.00;;;;;;5028190;28;20256;-84
2023/04/05 07:10:55;;;;;;;73.55;11.18;;;3.50;60.00;;;;;;5028005;28;20216;-85
2023/04/05 07:13:24;;;;;;;78.20;10.90;;;3.60;58.50;;;;;;5027397;28;20186;-85
2023/04/05 07:15:51;;;;;;;74.55;10.48;;;3.70;56.80;;;;;;5027228;28;20249;-85
2023/04/05 07:18:18;;;;;;;73.35;9.95;;;3.80;56.00;;;;;;5028249;28;20170;-85
2023/04/05 07:20:51;;;;;;;73.45;10.00;;;3.90;52.20;;;;;;5026338;28;20169;-85
2023/04/05 07:23:19;;;;;;;76.05;10.63;;;3.90;49.70;;;;;;5026080;28;20675;-85
2023/04/05 07:25:45;;;;;;;77.00;11.25;;;4.00;51.80;;;;;;5024635;28;20174;-85
2023/04/05 07:28:11;;;;;;;69.77;9.00;;;4.00;51.00;;;;;;5025071;28;20315;-85
2023/04/05 07:30:36;;;;;;;75.97;10.30;;;4.10;50.00;;;;;;5021363;28;20423;-85
2023/04/05 07:33:02;;;;;;;73.47;10.13;;;4.10;42.10;;;;;;5022285;28;20178;-86
2023/04/05 07:35:28;;;;;;;75.80;11.50;;;4.20;40.70;;;;;;5020887;28;20404;-85
2023/04/05 07:37:55;;;;;;;80.63;10.90;;;4.30;33.10;;;;;;5020887;28;20173;-87
2023/04/05 07:40:20;;;;;;;72.50;9.70;;;4.30;30.90;;;;;;5023043;28;20409;-85
2023/04/05 07:42:46;;;;;;;72.37;11.33;;;4.30;28.90;;;;;;5023001;28;20182;-85
2023/04/05 07:45:12;;;;;;;73.80;11.73;;;4.40;26.60;;;;;;5022311;28;20169;-83
2023/04/05 07:47:38;;;;;;;80.13;11.53;;;4.50;22.40;;;;;;5021742;28;20193;-84
2023/04/05 07:50:05;;;;;;;73.47;11.97;;;4.50;21.20;;;;;;5021716;28;20162;-83
2023/04/05 07:52:32;;;;;;;73.82;10.73;;;4.60;18.20;;;;;;5025303;28;20496;-85
2023/04/05 07:54:58;;;;;;;72.07;11.65;;;4.70;16.70;;;;;;5027256;28;20166;-84
2023/04/05 07:57:24;;;;;;;75.18;11.13;;;4.70;15.30;;;;;;5026842;28;20165;-84
2023/04/05 07:59:51;;;;;;;76.27;11.50;;;4.80;14.60;;;;;;5027036;28;20660;-84
2023/04/05 08:02:17;;;;;;;75.47;11.07;;;4.80;15.00;;;;;;5025905;28;20634;-85
2023/04/05 08:04:43;;;;;;;72.50;10.00;;;4.90;15.00;;;;;;5027197;28;20202;-85
2023/04/05 08:07:08;;;;;;;71.40;11.27;;;4.90;16.10;;;;;;5027030;28;20424;-84
2023/04/05 08:09:35;;;;;;;71.90;9.73;;;5.00;13.30;;;;;;5026606;28;20166;-85
2023/04/05 08:12:01;;;;;;;79.18;11.27;;;5.10;14.00;;;;;;5026848;28;20553;-87
2023/04/05 08:14:27;;;;;;;70.60;8.20;;;5.20;8.60;;;;;;5025563;28;20209;-85
2023/04/05 08:16:53;;;;;;;74.50;11.35;;;5.20;2.90;;;;;;5025538;28;20176;-84
2023/04/05 08:19:19;;;;;;;69.67;9.43;;;5.30;2.90;;;;;;5025009;28;20608;-85
2023/04/05 08:21:45;;;;;;;71.30;9.53;;;5.40;2.20;;;;;;5024015;28;20750;-83
2023/04/05 08:24:14;;;;;;;73.57;10.33;;;5.40;3.60;;;;;;5024135;28;20425;-84
2023/04/05 08:26:43;;;;;;;73.00;10.07;;;5.40;1.00;;;;;;5024119;28;20532;-84
2023/04/05 08:29:09;;;;;;;74.97;9.90;;;5.40;1.00;;;;;;5024180;28;20252;-84
2023/04/05 08:31:37;;;;;;;73.70;9.70;;;5.50;1.00;;;;;;5022622;28;20630;-85
2023/04/05 08:34:06;;;;;;;72.38;10.70;;;5.60;1.00;;;;;;5023072;28;20182;-84
2023/04/05 08:36:32;;;;;;;76.53;10.70;;;5.70;1.00;;;;;;5019975;28;20176;-86
2023/04/05 08:38:58;;;;;;;72.43;10.10;;;5.70;1.80;;;;;;5020359;28;20174;-84
2023/04/05 08:41:34;;;;;;;73.70;10.57;;;5.70;1.00;;;;;;5020472;28;20491;-85
2023/04/05 08:44:02;;;;;;;76.93;11.20;;;5.70;2.00;;;;;;5020140;28;20552;-85
2023/04/05 08:46:33;;;;;;;72.15;9.30;;;5.80;1.00;;;;;;5020784;28;20249;-84
2023/04/05 08:49:00;;;;;;;74.43;11.02;;;5.80;1.00;;;;;;5018743;28;20189;-84
2023/04/05 08:51:27;;;;;;;74.30;11.15;;;5.90;1.00;;;;;;5019742;28;20688;-84
2023/04/05 08:53:53;;;;;;;74.38;11.48;;;6.00;1.00;;;;;;5018724;28;20205;-84
2023/04/05 08:56:31;;;;;;;73.00;10.15;;;6.00;1.00;;;;;;5021598;28;20212;-86
2023/04/05 08:59:06;;;;;;;74.00;11.77;;;6.10;1.00;;;;;;5020991;28;20177;-86
2023/04/05 09:01:45;;;;;;;74.07;9.73;;;6.20;1.00;;;;;;5016612;28;20656;-84
2023/04/05 09:04:27;;;;;;;73.15;10.05;;;6.30;1.00;;;;;;5017347;28;20601;-84
2023/04/05 09:07:13;;;;;;;71.45;9.52;;;6.40;1.00;;;;;;5017649;28;20171;-86
2023/04/05 09:09:46;;;;;;;78.40;10.32;;;6.50;1.00;;;;;;5017146;28;20517;-86
2023/04/05 09:12:21;;;;;;;71.75;8.73;;;6.60;1.00;;;;;;5016066;28;20173;-86
2023/04/05 09:14:48;;;;;;;76.97;10.02;;;6.60;1.00;;;;;;5002173;28;20180;-85
2023/04/05 09:17:17;;;;;;;71.97;10.05;;;6.70;1.00;;;;;;5028128;28;20161;-85
2023/04/05 09:19:43;;;;;;;73.53;10.50;;;6.70;1.00;;;;;;5027112;28;20261;-86
2023/04/05 09:22:10;;;;;;;71.22;9.73;;;6.70;1.00;;;;;;5026536;28;20166;-85
2023/04/05 09:24:41;;;;;;;76.35;12.13;;;6.70;1.00;;;;;;5027752;28;20189;-85
2023/04/05 09:27:18;;;;;;;72.75;10.23;;;6.90;1.00;;;;;;5027007;28;20170;-82
2023/04/05 09:29:46;;;;;;;79.28;11.00;;;7.00;1.00;;;;;;5030367;28;20474;-84
2023/04/05 09:32:13;;;;;;;76.38;11.43;;;7.10;1.00;;;;;;5027784;28;20162;-84
2023/04/05 09:34:40;;;;;;;73.38;11.48;;;7.30;1.00;;;;;;5029271;28;20182;-84
2023/04/05 09:37:18;;;;;;;72.90;8.95;;;7.40;1.00;;;;;;5024629;28;20170;-85
2023/04/05 09:39:49;;;;;;;73.38;9.85;;;7.50;1.00;;;;;;5021397;28;20174;-83
2023/04/05 09:42:21;;;;;;;74.70;8.98;;;7.70;1.00;;;;;;5022212;28;20241;-85
2023/04/05 09:45:01;;;;;;;71.38;8.10;;;7.80;1.00;;;;;;5024667;28;20154;-86
2023/04/05 09:47:33;;;;;;;71.95;9.23;;;7.90;1.00;;;;;;5022856;28;20201;-85
2023/04/05 09:50:24;;;;;;;71.78;9.30;;;8.00;1.00;;;;;;5022839;28;20146;-84
2023/04/05 09:52:51;;;;;;;71.32;8.55;;;8.10;1.00;;;;;;5022222;28;20193;-86
2023/04/05 09:55:27;;;;;;;73.13;8.70;;;8.30;1.00;;;;;;5023981;28;20162;-84
2023/04/05 09:57:53;;;;;;;84.53;9.48;;;8.40;1.00;;;;;;5021247;28;20197;-86
2023/04/05 10:00:21;;;;;;;76.23;8.00;;;8.40;1.00;;;;;;5021398;28;20173;-83
2023/04/05 10:02:52;;;;;;;72.25;10.05;;;8.40;1.00;;;;;;5020485;28;20204;-85
2023/04/05 10:05:49;;;;;;;72.57;9.00;;;8.50;1.00;;;;;;5022876;28;20196;-85
2023/04/05 10:08:16;;;;;;;74.72;9.80;;;8.70;1.00;;;;;;5020744;28;20248;-85
2023/04/05 10:10:48;;;;;;;76.85;9.95;;;8.90;1.00;;;;;;5024506;28;20166;-84
2023/04/05 10:13:15;;;;;;;74.97;9.30;;;9.20;1.00;;;;;;5023965;28;20184;-85
2023/04/05 10:15:48;;;;;;;72.55;10.48;;;9.30;1.00;;;;;;5021752;28;20169;-85
2023/04/05 10:18:26;;;;;;;71.57;8.43;;;9.50;1.00;;;;;;5019778;28;20602;-85
2023/04/05 10:20:56;;;;;;;75.20;8.60;;;9.70;1.00;;;;;;5023029;28;20154;-85
2023/04/05 10:23:30;;;;;;;70.30;8.48;;;10.00;1.00;;;;;;5021340;28;20212;-85
2023/04/05 10:26:07;;;;;;;72.85;9.02;;;10.30;1.00;;;;;;5021908;28;20153;-84
2023/04/05 10:28:35;;;;;;;71.07;10.15;;;10.30;1.00;;;;;;5020540;28;20244;-86
2023/04/05 10:31:51;;;;;;;73.18;11.45;;;9.90;1.00;;;;;;5020751;28;20198;-85
2023/04/05 10:34:44;;;;;;;72.68;10.10;;;10.00;1.00;;;;;;5011545;28;20201;-83
2023/04/05 10:37:44;;;;;;;75.22;13.05;;;10.20;1.00;;;;;;5020547;28;20415;-86
2023/04/05 10:40:14;;;;;;;71.32;9.30;;;10.60;1.00;;;;;;5020547;28;20232;-83
2023/04/05 10:42:59;;;;;;;74.55;12.80;;;10.60;1.00;;;;;;5019706;28;20294;-83
2023/04/05 10:45:27;;;;;;;71.10;9.02;;;10.80;1.00;;;;;;5019939;28;20166;-83
2023/04/05 10:48:15;;;;;;;70.15;9.13;;;11.00;1.00;;;;;;5020530;28;20216;-83
2023/04/05 10:50:42;;;;;;;70.32;8.57;;;10.70;1.00;;;;;;5019846;28;20193;-82
2023/04/05 10:53:09;;;;;;;69.13;7.90;;;10.90;1.00;;;;;;5019426;28;20198;-84
2023/04/05 10:55:35;;;;;;;72.18;9.48;;;10.50;1.00;;;;;;5021892;28;20162;-83
2023/04/05 10:58:02;;;;;;;71.43;8.13;;;10.40;1.00;;;;;;5022049;28;20189;-83
2023/04/05 11:00:28;;;;;;;72.50;8.05;;;10.50;1.00;;;;;;5028510;28;20223;-85
2023/04/05 11:02:57;;;;;;;70.53;8.57;;;10.80;1.00;;;;;;5027832;28;20236;-85
2023/04/05 11:05:31;;;;;;;69.65;6.85;;;11.10;1.00;;;;;;5026687;28;20185;-85
2023/04/05 11:08:21;;;;;;;70.10;8.07;;;11.50;1.00;;;;;;5020960;28;20211;-85
2023/04/05 11:10:52;;;;;;;71.13;9.05;;;11.60;1.00;;;;;;5022319;28;20537;-84
2023/04/05 11:13:17;;;;;;;73.97;8.18;;;11.90;1.00;;;;;;5019328;28;20177;-84
2023/04/05 11:15:43;;;;;;;72.60;8.80;;;12.10;1.00;;;;;;5020161;28;20169;-84
2023/04/05 11:18:26;;;;;;;71.30;7.90;;;11.80;1.00;;;;;;5019526;28;20256;-85
2023/04/05 11:21:07;;;;;;;71.22;8.45;;;12.10;1.00;;;;;;5020059;28;20177;-85
2023/04/05 11:24:03;;;;;;;72.90;8.65;;;12.40;1.00;;;;;;5018705;28;20280;-84
2023/04/05 11:26:55;;;;;;;73.85;9.00;;;11.90;1.00;;;;;;5019828;28;20181;-84
2023/04/05 11:29:48;;;;;;;74.90;9.32;;;11.70;1.00;;;;;;5017018;28;20707;-85
2023/04/05 11:32:15;;;;;;;71.85;8.95;;;11.80;1.00;;;;;;5024198;28;20209;-84
2023/04/05 11:34:44;;;;;;;73.30;9.20;;;11.70;1.00;;;;;;5024591;28;20232;-85
2023/04/05 11:37:10;;;;;;;72.53;9.50;;;11.90;1.00;;;;;;5024570;28;20181;-85
2023/04/05 11:39:37;;;;;;;74.97;9.70;;;11.90;1.00;;;;;;5023487;28;20541;-86
2023/04/05 11:42:12;;;;;;;74.18;8.60;;;12.40;1.00;;;;;;5023448;28;20238;-85
2023/04/05 11:44:41;;;;;;;74.70;8.45;;;12.90;1.00;;;;;;5025081;28;20189;-85
2023/04/05 11:47:07;;;;;;;69.38;7.50;;;12.80;1.00;;;;;;5026365;28;20224;-84
2023/04/05 11:49:34;;;;;;;72.03;8.48;;;11.80;1.00;;;;;;5023934;28;20249;-85
2023/04/05 11:52:10;;;;;;;72.57;9.10;;;12.10;1.00;;;;;;5022776;28;20725;-85
2023/04/05 11:54:36;;;;;;;70.50;8.23;;;12.70;1.00;;;;;;5023873;28;20181;-85
2023/04/05 11:57:02;;;;;;;70.67;8.60;;;13.20;1.00;;;;;;5023450;28;20640;-84
2023/04/05 11:59:30;;;;;;;70.75;7.90;;;12.90;1.00;;;;;;5019350;28;20173;-84
2023/04/05 12:02:05;;;;;;;73.00;8.15;;;12.90;1.00;;;;;;5018713;28;20177;-85
2023/04/05 12:04:31;;;;;;;72.22;8.65;;;13.30;1.00;;;;;;5022507;28;20617;-85
2023/04/05 12:07:13;;;;;;;72.97;7.72;;;13.60;1.00;;;;;;5022284;28;20184;-85
2023/04/05 12:10:01;;;;;;;73.40;8.60;;;14.10;1.00;;;;;;5022542;28;20563;-85
2023/04/05 12:12:34;;;;;;;73.53;9.70;;;14.10;1.00;;;;;;5023013;28;20397;-84
2023/04/05 12:15:04;;;;;;;71.17;7.43;;;14.00;1.00;;;;;;5020931;28;20185;-85
2023/04/05 12:17:53;;;;;;;74.33;9.60;;;14.10;1.00;;;;;;5023202;28;20389;-85
2023/04/05 12:20:24;;;;;;;75.13;9.17;;;14.10;1.00;;;;;;5023058;28;20409;-84
2023/04/05 12:22:53;;;;;;;74.65;9.60;;;14.10;1.00;;;;;;5025399;28;20493;-84
2023/04/05 12:25:19;;;;;;;78.50;10.53;;;13.90;1.00;;;;;;5024191;28;20189;-84
2023/04/05 12:27:46;;;;;;;74.43;9.60;;;13.50;1.00;;;;;;5023515;28;20444;-84
2023/04/05 12:30:21;;;;;;;73.07;9.70;;;13.60;1.00;;;;;;5025466;28;20178;-84
2023/04/05 12:32:50;;;;;;;74.67;10.33;;;13.50;1.00;;;;;;5022458;28;20192;-85
2023/04/05 12:35:19;;;;;;;73.13;10.67;;;13.70;1.00;;;;;;5022726;28;20421;-85
2023/04/05 12:37:45;;;;;;;73.93;10.00;;;13.70;1.00;;;;;;5026248;28;20483;-84
2023/04/05 12:40:12;;;;;;;73.68;10.25;;;13.70;1.00;;;;;;5026682;28;20237;-84
2023/04/05 12:42:39;;;;;;;72.83;9.90;;;13.50;1.00;;;;;;5026034;28;20169;-85
2023/04/05 12:45:12;;;;;;;75.17;10.60;;;13.70;1.00;;;;;;5021080;28;20510;-85
2023/04/05 12:47:55;;;;;;;71.90;8.43;;;14.00;1.00;;;;;;5021765;28;20470;-85
2023/04/05 12:50:29;;;;;;;74.73;8.97;;;14.20;1.00;;;;;;5022262;28;20158;-85
2023/04/05 12:52:57;;;;;;;72.40;10.13;;;14.30;1.00;;;;;;5025006;28;20455;-85
2023/04/05 12:55:23;;;;;;;75.90;10.10;;;14.40;1.00;;;;;;5025437;28;20407;-85
2023/04/05 12:58:00;;;;;;;76.00;11.00;;;14.40;1.00;;;;;;5009114;28;20916;-85
2023/04/05 13:00:28;;;;;;;77.73;11.90;;;14.00;1.00;;;;;;5023838;28;20416;-85
2023/04/05 13:02:57;;;;;;;75.03;10.03;;;13.80;1.00;;;;;;5023986;28;20435;-84
2023/04/05 13:05:30;;;;;;;74.50;10.60;;;13.80;1.00;;;;;;5024250;28;20437;-85